Time;durP1;ratioP1;P1;durP2;ratioP2;P2;SDS_P1;SDS_P2;PMS_P1;PMS_P2;Temp;Humidity;BMP_temperature;BMP_pressure;BME280_temperature;BME280_humidity;BME280_pressure;Samples;Min_cycle;Max_cycle;Signal;HPM_P1;HPM_P2
2023/07/27 00:00:47;;;;;;;14.13;6.10;;;12.90;99.90;;;;;;4973289;28;20049;-79
2023/07/27 00:03:13;;;;;;;9.65;6.43;;;13.00;99.90;;;;;;4990592;28;20109;-79
2023/07/27 00:05:38;;;;;;;10.35;5.95;;;13.00;99.90;;;;;;4958733;28;20049;-79
2023/07/27 00:08:04;;;;;;;9.00;5.28;;;13.10;99.90;;;;;;4940805;28;20078;-79
2023/07/27 00:10:30;;;;;;;10.70;5.35;;;13.10;99.90;;;;;;4974540;28;20351;-79
2023/07/27 00:12:56;;;;;;;8.90;4.80;;;13.10;99.90;;;;;;4975541;28;20046;-79
2023/07/27 00:15:22;;;;;;;7.93;5.10;;;13.20;99.90;;;;;;4990366;28;20046;-80
2023/07/27 00:17:47;;;;;;;9.07;5.65;;;13.20;99.90;;;;;;4975178;28;20499;-79
2023/07/27 00:20:13;;;;;;;10.90;5.65;;;13.20;99.90;;;;;;4958107;28;20046;-79
2023/07/27 00:22:39;;;;;;;7.20;4.95;;;13.20;99.90;;;;;;4991153;28;20069;-79
2023/07/27 00:25:05;;;;;;;8.23;4.70;;;13.20;99.90;;;;;;4961691;28;20057;-79
2023/07/27 00:27:31;;;;;;;7.45;5.10;;;13.30;99.90;;;;;;4974856;28;20053;-79
2023/07/27 00:29:56;;;;;;;5.45;4.28;;;13.30;99.90;;;;;;4990284;28;20050;-79
2023/07/27 00:32:22;;;;;;;6.95;5.03;;;13.30;99.90;;;;;;4991190;28;20303;-79
2023/07/27 00:34:51;;;;;;;9.57;5.10;;;13.30;99.90;;;;;;4990062;28;20063;-79
2023/07/27 00:37:17;;;;;;;8.02;4.95;;;13.30;99.90;;;;;;4974903;28;20065;-79
2023/07/27 00:39:43;;;;;;;8.85;4.70;;;13.30;99.90;;;;;;4974416;28;20407;-79
2023/07/27 00:42:08;;;;;;;8.80;4.80;;;13.30;99.90;;;;;;4974932;28;20534;-79
2023/07/27 00:44:34;;;;;;;9.25;4.68;;;13.30;99.90;;;;;;4971776;28;20047;-79
2023/07/27 00:47:00;;;;;;;6.05;4.38;;;13.40;99.90;;;;;;4941909;28;20066;-79
2023/07/27 00:49:25;;;;;;;7.53;4.55;;;13.40;99.90;;;;;;4941667;28;20050;-80
2023/07/27 00:51:51;;;;;;;12.90;5.30;;;13.40;99.90;;;;;;4956402;28;20069;-80
2023/07/27 00:54:18;;;;;;;10.63;5.15;;;13.40;99.90;;;;;;4942196;28;20042;-79
2023/07/27 00:56:44;;;;;;;9.98;5.10;;;13.40;99.90;;;;;;4958347;28;20048;-79
2023/07/27 00:59:10;;;;;;;6.60;4.75;;;13.40;99.90;;;;;;4958098;28;20048;-80
2023/07/27 01:01:36;;;;;;;10.18;5.35;;;13.50;99.90;;;;;;4946130;28;20038;-80
2023/07/27 01:04:02;;;;;;;9.35;5.78;;;13.50;99.90;;;;;;4957411;28;20054;-79
2023/07/27 01:06:29;;;;;;;8.63;5.28;;;13.50;99.90;;;;;;4957847;28;20027;-79
2023/07/27 01:08:55;;;;;;;8.43;5.18;;;13.50;99.90;;;;;;4973573;28;20043;-79
2023/07/27 01:11:40;;;;;;;8.60;5.18;;;13.60;99.90;;;;;;4956833;28;20042;-79
2023/07/27 01:14:12;;;;;;;8.55;5.35;;;13.60;99.90;;;;;;4958333;28;20042;-80
2023/07/27 01:16:57;;;;;;;9.52;5.15;;;13.60;99.90;;;;;;4957951;28;20057;-80
2023/07/27 01:19:32;;;;;;;6.70;4.68;;;13.60;99.90;;;;;;4957481;28;20046;-80
2023/07/27 01:22:42;;;;;;;12.07;5.47;;;13.60;99.90;;;;;;4979513;28;20088;-80
2023/07/27 01:25:20;;;;;;;9.38;5.78;;;13.60;99.90;;;;;;4957530;28;20046;-79
2023/07/27 01:27:52;;;;;;;8.55;5.68;;;13.60;99.90;;;;;;4974151;28;20049;-79
2023/07/27 01:30:26;;;;;;;11.27;5.55;;;13.60;99.90;;;;;;4957654;28;20038;-80
2023/07/27 01:33:04;;;;;;;9.13;5.68;;;13.70;99.90;;;;;;4972975;28;20144;-80
2023/07/27 01:35:39;;;;;;;13.55;6.53;;;13.60;99.90;;;;;;4950361;28;20051;-80
2023/07/27 01:38:08;;;;;;;9.77;5.30;;;13.60;99.90;;;;;;4970693;28;20089;-79
2023/07/27 01:40:35;;;;;;;9.57;5.88;;;13.60;99.90;;;;;;4944910;28;20503;-80
2023/07/27 01:43:02;;;;;;;6.72;5.28;;;13.60;99.90;;;;;;4973527;28;20053;-80
2023/07/27 01:45:28;;;;;;;8.50;5.15;;;13.50;99.90;;;;;;4957202;28;20072;-80
2023/07/27 01:47:54;;;;;;;9.38;5.43;;;13.50;99.90;;;;;;4957768;28;20129;-80
2023/07/27 01:50:20;;;;;;;7.88;5.70;;;13.50;99.90;;;;;;4973513;28;20423;-80
2023/07/27 01:52:47;;;;;;;8.98;5.20;;;13.40;99.90;;;;;;4957885;28;20274;-80
2023/07/27 01:55:15;;;;;;;11.35;6.47;;;13.40;99.90;;;;;;4972209;28;20057;-79
2023/07/27 01:57:43;;;;;;;12.15;5.72;;;13.30;99.90;;;;;;4973610;28;20042;-80
2023/07/27 02:00:11;;;;;;;8.18;4.93;;;13.30;99.90;;;;;;4971933;28;20046;-79
2023/07/27 02:02:37;;;;;;;7.72;5.32;;;13.30;99.90;;;;;;4972639;28;20042;-79
2023/07/27 02:05:03;;;;;;;10.05;6.15;;;13.30;99.90;;;;;;4972858;28;20125;-79
2023/07/27 02:07:33;;;;;;;10.52;5.15;;;13.30;99.90;;;;;;4938248;28;20149;-79
2023/07/27 02:09:59;;;;;;;10.18;5.25;;;13.30;99.90;;;;;;4954204;28;20043;-79
2023/07/27 02:12:40;;;;;;;9.70;5.43;;;13.20;99.90;;;;;;4968970;28;20054;-79
2023/07/27 02:15:17;;;;;;;9.25;5.38;;;13.20;99.90;;;;;;4966040;28;20042;-79
2023/07/27 02:17:49;;;;;;;10.48;5.78;;;13.20;99.90;;;;;;4957462;28;20049;-79
2023/07/27 02:20:19;;;;;;;9.23;6.13;;;13.20;99.90;;;;;;4972734;28;20042;-79
2023/07/27 02:22:46;;;;;;;9.32;5.40;;;13.20;99.90;;;;;;4972471;28;20061;-79
2023/07/27 02:25:12;;;;;;;8.10;5.55;;;13.10;99.90;;;;;;4957270;28;20034;-78
2023/07/27 02:27:38;;;;;;;6.95;4.55;;;13.10;99.90;;;;;;4973445;28;20053;-79
2023/07/27 02:30:04;;;;;;;12.88;5.35;;;13.10;99.90;;;;;;4957368;28;20046;-79
2023/07/27 02:32:30;;;;;;;9.98;5.60;;;13.10;99.90;;;;;;4959201;28;20039;-79
2023/07/27 02:34:56;;;;;;;9.63;5.63;;;13.10;99.90;;;;;;4958730;28;20042;-79
2023/07/27 02:37:22;;;;;;;11.52;6.00;;;13.10;99.90;;;;;;4976852;28;20500;-79
2023/07/27 02:39:48;;;;;;;12.07;5.60;;;13.10;99.90;;;;;;4992236;28;20049;-79
2023/07/27 02:42:13;;;;;;;10.43;5.20;;;13.10;99.90;;;;;;4976850;28;20129;-79
2023/07/27 02:44:39;;;;;;;12.05;5.55;;;13.20;99.90;;;;;;4977096;28;20042;-79
2023/07/27 02:47:05;;;;;;;9.35;5.25;;;13.20;99.90;;;;;;4989412;28;20061;-79
2023/07/27 02:49:31;;;;;;;9.00;5.80;;;13.20;99.90;;;;;;4984424;28;20053;-79
2023/07/27 02:51:56;;;;;;;8.90;5.75;;;13.20;99.90;;;;;;4976739;28;20100;-79
2023/07/27 02:54:22;;;;;;;8.10;5.35;;;13.30;99.90;;;;;;4959624;28;20034;-79
2023/07/27 02:56:48;;;;;;;9.25;5.63;;;13.30;99.90;;;;;;4989774;28;20038;-79
2023/07/27 02:59:14;;;;;;;11.23;5.70;;;13.20;99.90;;;;;;4957380;28;20508;-79
2023/07/27 03:01:40;;;;;;;9.23;5.80;;;13.30;99.90;;;;;;4959725;28;20039;-80
2023/07/27 03:04:05;;;;;;;9.70;5.70;;;13.30;99.90;;;;;;4983375;28;20554;-79
2023/07/27 03:06:31;;;;;;;8.32;5.80;;;13.30;99.90;;;;;;4992774;28;20042;-79
2023/07/27 03:08:57;;;;;;;10.18;6.18;;;13.30;99.90;;;;;;4960687;28;20046;-79
2023/07/27 03:11:22;;;;;;;11.40;6.10;;;13.30;99.90;;;;;;4992473;28;20447;-79
2023/07/27 03:13:48;;;;;;;10.88;5.68;;;13.40;99.90;;;;;;4975852;28;20122;-79
2023/07/27 03:16:14;;;;;;;9.15;5.65;;;13.40;99.90;;;;;;4992354;28;20077;-79
2023/07/27 03:18:39;;;;;;;10.80;5.97;;;13.40;99.90;;;;;;4974929;28;20045;-80
2023/07/27 03:21:05;;;;;;;9.68;5.93;;;13.40;99.90;;;;;;4960142;28;20038;-80
2023/07/27 03:23:33;;;;;;;8.60;5.82;;;13.40;99.90;;;;;;4943490;28;20054;-80
2023/07/27 03:25:59;;;;;;;9.40;5.95;;;13.40;99.90;;;;;;4991904;28;20411;-80
2023/07/27 03:28:24;;;;;;;11.60;6.18;;;13.50;99.90;;;;;;4974353;28;20046;-79
2023/07/27 03:30:50;;;;;;;10.07;6.28;;;13.50;99.90;;;;;;5001510;28;20041;-80
2023/07/27 03:33:16;;;;;;;9.88;5.75;;;13.50;99.90;;;;;;4980298;28;20104;-79
2023/07/27 03:35:41;;;;;;;10.43;6.28;;;13.50;99.90;;;;;;4975620;28;20582;-79
2023/07/27 03:38:07;;;;;;;8.38;5.93;;;13.60;99.90;;;;;;4959004;28;20092;-79
2023/07/27 03:40:33;;;;;;;10.15;6.22;;;13.60;99.90;;;;;;4959071;28;20046;-79
2023/07/27 03:42:58;;;;;;;10.70;6.40;;;13.60;99.90;;;;;;4972700;28;20038;-80
2023/07/27 03:45:24;;;;;;;10.95;6.45;;;13.60;99.90;;;;;;4940408;28;20054;-79
2023/07/27 03:47:50;;;;;;;11.73;6.30;;;13.60;99.90;;;;;;4949257;28;20050;-79
2023/07/27 03:50:15;;;;;;;10.13;6.30;;;13.60;99.90;;;;;;4975619;28;20049;-79
2023/07/27 03:52:41;;;;;;;8.65;6.18;;;13.60;99.90;;;;;;4975316;28;20460;-79
2023/07/27 03:55:07;;;;;;;11.95;7.45;;;13.60;99.90;;;;;;4959193;28;20482;-79
2023/07/27 03:57:33;;;;;;;10.90;6.60;;;13.50;99.90;;;;;;4970468;28;20515;-79
2023/07/27 04:00:00;;;;;;;14.85;6.60;;;13.50;99.90;;;;;;4939932;28;20054;-79
2023/07/27 04:02:26;;;;;;;9.18;6.35;;;13.50;99.90;;;;;;4976523;28;20534;-79
2023/07/27 04:04:52;;;;;;;11.65;6.93;;;13.50;99.90;;;;;;4975049;28;20578;-79
2023/07/27 04:07:21;;;;;;;11.57;6.85;;;13.40;99.90;;;;;;4974581;28;20038;-79
2023/07/27 04:09:47;;;;;;;10.45;6.63;;;13.40;99.90;;;;;;4957401;28;20488;-79
2023/07/27 04:12:13;;;;;;;13.85;7.05;;;13.40;99.90;;;;;;4974756;28;20041;-79
2023/07/27 04:14:39;;;;;;;9.98;6.88;;;13.40;99.90;;;;;;4974537;28;20088;-79
2023/07/27 04:17:05;;;;;;;11.40;7.28;;;13.40;99.90;;;;;;4940010;28;20042;-79
2023/07/27 04:19:31;;;;;;;11.85;7.60;;;13.40;99.90;;;;;;4971508;28;20041;-79
2023/07/27 04:21:57;;;;;;;13.68;7.32;;;13.30;99.90;;;;;;4973775;28;20340;-79
2023/07/27 04:24:22;;;;;;;15.43;7.47;;;13.30;99.90;;;;;;4944299;28;20519;-79
2023/07/27 04:26:48;;;;;;;13.52;6.97;;;13.30;99.90;;;;;;4954376;28;20038;-79
2023/07/27 04:29:14;;;;;;;12.43;7.63;;;13.30;99.90;;;;;;4971031;28;20406;-79
2023/07/27 04:31:39;;;;;;;14.15;8.20;;;13.30;99.90;;;;;;4974182;28;20050;-79
2023/07/27 04:34:05;;;;;;;13.02;8.05;;;13.30;99.90;;;;;;4957713;28;20038;-79
2023/07/27 04:36:31;;;;;;;14.18;8.30;;;13.30;99.90;;;;;;4974426;28;20066;-79
2023/07/27 04:38:57;;;;;;;15.52;7.97;;;13.30;99.90;;;;;;4956482;28;20117;-79
2023/07/27 04:41:23;;;;;;;12.45;7.20;;;13.30;99.90;;;;;;4958472;28;20408;-79
2023/07/27 04:43:49;;;;;;;12.10;7.15;;;13.30;99.90;;;;;;4938980;28;20499;-79
2023/07/27 04:46:14;;;;;;;14.82;8.55;;;13.30;99.90;;;;;;4954796;28;20049;-80
2023/07/27 04:48:40;;;;;;;13.77;7.75;;;13.30;99.90;;;;;;4964012;28;20046;-79
2023/07/27 04:51:05;;;;;;;11.32;6.57;;;13.40;99.90;;;;;;4973933;28;20042;-80
2023/07/27 04:53:31;;;;;;;11.77;7.13;;;13.40;99.90;;;;;;4974223;28;20046;-80
2023/07/27 04:55:57;;;;;;;10.10;6.80;;;13.40;99.90;;;;;;4957779;28;20042;-80
2023/07/27 04:58:22;;;;;;;11.60;6.88;;;13.40;99.90;;;;;;4956221;28;20503;-79
2023/07/27 05:00:55;;;;;;;10.70;7.07;;;13.50;99.90;;;;;;4941647;28;20129;-80
2023/07/27 05:03:21;;;;;;;;;;;13.50;99.90;;;;;;4938746;28;20140;-80
2023/07/27 05:05:47;;;;;;;10.98;7.28;;;13.50;99.90;;;;;;4954771;28;19980;-80
2023/07/27 05:08:12;;;;;;;13.02;7.55;;;13.60;99.90;;;;;;4941921;28;20069;-79
2023/07/27 05:10:41;;;;;;;9.57;6.95;;;13.60;99.90;;;;;;4957888;28;20046;-80
2023/07/27 05:13:10;;;;;;;14.40;7.57;;;13.60;99.90;;;;;;4958417;28;20503;-80
2023/07/27 05:15:40;;;;;;;11.52;7.18;;;13.50;99.90;;;;;;4957766;28;20136;-80
2023/07/27 05:18:05;;;;;;;10.30;7.13;;;13.60;99.90;;;;;;4972838;28;20046;-79
2023/07/27 05:20:33;;;;;;;11.73;7.03;;;13.60;99.90;;;;;;4957790;28;20050;-79
2023/07/27 05:22:59;;;;;;;10.65;7.28;;;13.60;99.90;;;;;;4973801;28;20042;-79
2023/07/27 05:25:25;;;;;;;12.00;7.28;;;13.60;99.90;;;;;;4974542;28;20046;-79
2023/07/27 05:27:50;;;;;;;12.15;7.38;;;13.60;99.90;;;;;;4957275;28;20508;-79
2023/07/27 05:30:16;;;;;;;10.25;7.50;;;13.60;99.90;;;;;;4957553;28;20061;-79
2023/07/27 05:32:42;;;;;;;10.02;7.25;;;13.60;99.90;;;;;;4973948;28;20041;-79
2023/07/27 05:35:07;;;;;;;11.98;7.32;;;13.60;99.90;;;;;;4962740;28;20149;-79
2023/07/27 05:37:33;;;;;;;12.25;7.63;;;13.70;99.90;;;;;;4976944;28;20045;-79
2023/07/27 05:39:59;;;;;;;13.50;7.82;;;13.60;99.90;;;;;;4960252;28;20049;-79
2023/07/27 05:42:24;;;;;;;13.57;7.00;;;13.60;99.90;;;;;;4977065;28;20560;-79
2023/07/27 05:44:50;;;;;;;10.95;7.85;;;13.60;99.90;;;;;;4976860;28;20046;-79
2023/07/27 05:47:17;;;;;;;12.07;7.43;;;13.70;99.90;;;;;;4960748;28;20042;-79
2023/07/27 05:49:42;;;;;;;13.32;8.65;;;13.70;99.90;;;;;;4992084;28;20138;-79
2023/07/27 05:52:08;;;;;;;12.55;8.02;;;13.70;99.90;;;;;;4993074;28;20128;-79
2023/07/27 05:54:34;;;;;;;15.40;9.40;;;13.70;99.90;;;;;;4981845;28;20121;-79
2023/07/27 05:56:59;;;;;;;16.77;10.23;;;13.70;99.90;;;;;;4979406;28;20491;-79
2023/07/27 05:59:25;;;;;;;17.52;10.63;;;13.70;99.90;;;;;;4992355;28;20566;-79
2023/07/27 06:01:51;;;;;;;17.40;11.55;;;13.80;99.90;;;;;;4959914;28;20561;-79
2023/07/27 06:04:20;;;;;;;17.65;10.90;;;13.80;99.90;;;;;;4960587;28;20030;-79
2023/07/27 06:06:46;;;;;;;18.38;10.40;;;13.80;99.90;;;;;;4993165;28;20447;-79
2023/07/27 06:09:12;;;;;;;17.92;9.32;;;13.80;99.90;;;;;;4976350;28;20487;-79
2023/07/27 06:11:38;;;;;;;16.30;10.70;;;13.80;99.90;;;;;;4947090;28;20070;-79
2023/07/27 06:14:04;;;;;;;17.95;10.75;;;13.90;99.90;;;;;;4975659;28;20034;-79
2023/07/27 06:16:29;;;;;;;17.13;10.82;;;13.90;99.90;;;;;;4944843;28;20570;-79
2023/07/27 06:18:55;;;;;;;19.23;10.93;;;13.90;99.90;;;;;;4991584;28;20065;-79
2023/07/27 06:21:21;;;;;;;20.30;11.75;;;13.90;99.90;;;;;;4948198;28;20054;-79
2023/07/27 06:23:46;;;;;;;21.65;10.70;;;14.00;99.90;;;;;;4996231;28;20046;-79
2023/07/27 06:26:12;;;;;;;16.05;9.80;;;14.00;99.90;;;;;;4996787;28;20046;-79
2023/07/27 06:28:38;;;;;;;16.90;10.85;;;14.00;99.90;;;;;;4994465;28;20491;-79
2023/07/27 06:31:04;;;;;;;20.90;10.55;;;14.00;99.90;;;;;;4979801;28;20042;-80
2023/07/27 06:33:29;;;;;;;18.35;10.55;;;14.00;99.90;;;;;;4978848;28;20042;-79
2023/07/27 06:35:55;;;;;;;20.95;11.77;;;14.10;99.90;;;;;;4973499;28;20047;-79
2023/07/27 06:38:21;;;;;;;18.75;10.90;;;14.10;99.90;;;;;;4957396;28;20046;-79
2023/07/27 06:40:46;;;;;;;18.20;11.48;;;14.10;99.90;;;;;;4985322;28;20121;-79
2023/07/27 06:43:12;;;;;;;17.67;11.27;;;14.10;99.90;;;;;;4993198;28;20484;-79
2023/07/27 06:45:38;;;;;;;18.05;11.02;;;14.20;99.90;;;;;;4976723;28;20475;-79
2023/07/27 06:48:04;;;;;;;17.15;10.70;;;14.20;99.90;;;;;;4972386;28;20093;-80
2023/07/27 06:50:30;;;;;;;14.50;9.60;;;14.20;99.90;;;;;;4969584;28;20049;-80
2023/07/27 06:52:56;;;;;;;15.95;10.38;;;14.30;99.90;;;;;;4992574;28;20034;-80
2023/07/27 06:55:21;;;;;;;18.25;11.75;;;14.30;99.90;;;;;;4976507;28;20185;-80
2023/07/27 06:57:47;;;;;;;15.93;9.55;;;14.30;99.90;;;;;;4959843;28;20042;-80
2023/07/27 07:00:13;;;;;;;18.45;10.15;;;14.30;99.90;;;;;;4947888;28;20124;-80
2023/07/27 07:02:39;;;;;;;14.40;9.63;;;14.40;99.90;;;;;;4991970;28;20042;-80
2023/07/27 07:05:05;;;;;;;14.23;8.95;;;14.50;99.90;;;;;;5005794;28;20126;-80
2023/07/27 07:07:31;;;;;;;15.82;8.63;;;14.50;99.90;;;;;;4957373;28;20038;-79
2023/07/27 07:09:56;;;;;;;15.27;9.07;;;14.50;99.90;;;;;;4977731;28;20397;-80
2023/07/27 07:12:22;;;;;;;11.43;8.38;;;14.50;99.90;;;;;;4992751;28;20459;-80
2023/07/27 07:14:48;;;;;;;11.82;8.23;;;14.50;99.90;;;;;;4992728;28;20065;-79
2023/07/27 07:17:14;;;;;;;15.18;8.48;;;14.50;99.90;;;;;;4992597;28;20034;-80
2023/07/27 07:19:39;;;;;;;11.20;7.72;;;14.60;99.90;;;;;;4975365;28;20072;-80
2023/07/27 07:22:05;;;;;;;14.32;8.20;;;14.60;99.90;;;;;;4991142;28;20042;-80
2023/07/27 07:24:31;;;;;;;11.93;7.72;;;14.60;99.90;;;;;;4992418;28;20038;-80
2023/07/27 07:26:57;;;;;;;10.57;7.78;;;14.60;99.90;;;;;;4975947;28;20034;-80
2023/07/27 07:29:23;;;;;;;14.02;7.95;;;14.70;99.90;;;;;;4959841;28;20042;-80
2023/07/27 07:31:48;;;;;;;12.43;7.63;;;14.70;99.90;;;;;;4975086;28;20046;-80
2023/07/27 07:34:15;;;;;;;11.40;7.82;;;14.70;99.90;;;;;;4975564;28;20034;-80
2023/07/27 07:36:40;;;;;;;11.25;8.13;;;14.70;99.90;;;;;;4976136;28;20495;-80
2023/07/27 07:39:06;;;;;;;9.85;7.38;;;14.70;99.90;;;;;;4955508;28;20137;-80
2023/07/27 07:41:34;;;;;;;13.20;8.10;;;14.80;99.90;;;;;;4956080;28;20081;-80
2023/07/27 07:44:00;;;;;;;12.57;7.28;;;14.80;99.90;;;;;;4961850;28;20089;-80
2023/07/27 07:46:25;;;;;;;12.10;7.50;;;14.80;99.90;;;;;;4945451;28;20486;-80
2023/07/27 07:48:51;;;;;;;11.93;8.05;;;14.80;99.90;;;;;;4944873;28;20042;-80
2023/07/27 07:51:17;;;;;;;12.85;8.25;;;14.80;99.90;;;;;;4975293;28;20608;-80
2023/07/27 07:53:42;;;;;;;10.55;7.10;;;14.80;99.90;;;;;;4960011;28;20039;-80
2023/07/27 07:56:13;;;;;;;11.90;8.30;;;14.80;99.90;;;;;;4960183;28;20030;-80
2023/07/27 07:58:39;;;;;;;11.55;8.05;;;14.80;99.90;;;;;;4975052;28;20042;-80
2023/07/27 08:01:05;;;;;;;11.18;7.90;;;14.80;99.90;;;;;;4942417;28;20048;-80
2023/07/27 08:03:30;;;;;;;14.23;8.35;;;14.80;99.90;;;;;;4944343;28;20053;-80
2023/07/27 08:05:57;;;;;;;12.45;8.80;;;14.80;99.90;;;;;;4943042;28;20061;-80
2023/07/27 08:08:22;;;;;;;10.88;8.20;;;14.80;99.90;;;;;;4943174;28;20046;-80
2023/07/27 08:10:48;;;;;;;11.02;7.50;;;14.80;99.90;;;;;;4972221;28;20047;-80
2023/07/27 08:13:14;;;;;;;10.52;8.48;;;14.80;99.90;;;;;;4945952;28;20022;-80
2023/07/27 08:15:39;;;;;;;12.80;7.80;;;14.80;99.90;;;;;;4981994;28;20043;-80
2023/07/27 08:18:05;;;;;;;11.02;8.38;;;14.80;99.90;;;;;;4950180;28;20101;-81
2023/07/27 08:20:31;;;;;;;11.45;8.55;;;14.90;99.90;;;;;;4969549;28;20124;-81
2023/07/27 08:22:57;;;;;;;9.88;7.80;;;14.90;99.90;;;;;;4961146;28;20039;-81
2023/07/27 08:25:22;;;;;;;8.75;7.13;;;14.90;99.90;;;;;;4981562;28;20042;-81
2023/07/27 08:27:50;;;;;;;10.68;7.55;;;15.00;99.90;;;;;;4982830;28;20042;-81
2023/07/27 08:30:16;;;;;;;9.60;7.32;;;15.00;99.90;;;;;;4966355;28;20042;-81
2023/07/27 08:32:41;;;;;;;8.55;7.18;;;15.00;99.90;;;;;;4944361;28;20385;-81
2023/07/27 08:35:08;;;;;;;9.50;6.28;;;15.10;99.90;;;;;;4966821;28;20054;-81
2023/07/27 08:37:33;;;;;;;7.82;6.32;;;15.00;99.90;;;;;;5018432;28;20557;-81
2023/07/27 08:39:59;;;;;;;7.97;6.32;;;15.00;99.90;;;;;;5009915;28;20266;-81
2023/07/27 08:42:25;;;;;;;9.38;6.32;;;15.00;99.90;;;;;;5011048;28;20080;-81
2023/07/27 08:44:51;;;;;;;6.95;5.80;;;15.00;99.90;;;;;;5011712;28;20029;-81
2023/07/27 08:47:18;;;;;;;6.93;6.03;;;15.00;99.90;;;;;;4962904;28;20041;-81
2023/07/27 08:49:45;;;;;;;6.22;5.63;;;15.00;99.90;;;;;;4994123;28;20403;-81
2023/07/27 08:52:15;;;;;;;8.60;5.70;;;15.00;99.90;;;;;;4982700;28;20031;-81
2023/07/27 08:54:40;;;;;;;9.25;6.05;;;15.10;99.90;;;;;;4993882;28;20422;-81
2023/07/27 08:57:06;;;;;;;6.07;5.10;;;15.00;99.90;;;;;;4994648;28;20042;-81
2023/07/27 08:59:33;;;;;;;7.72;5.60;;;15.00;99.90;;;;;;4994240;28;20058;-81
2023/07/27 09:01:59;;;;;;;6.22;5.30;;;15.10;99.90;;;;;;4994715;28;20471;-81
2023/07/27 09:04:24;;;;;;;8.90;5.68;;;15.10;99.90;;;;;;4993470;28;20044;-81
2023/07/27 09:06:50;;;;;;;8.95;5.57;;;15.10;99.90;;;;;;5006328;28;20522;-81
2023/07/27 09:09:20;;;;;;;7.60;5.50;;;15.10;99.90;;;;;;4974200;28;20049;-81
2023/07/27 09:11:46;;;;;;;9.10;5.68;;;15.20;99.90;;;;;;4979528;28;20046;-81
2023/07/27 09:14:13;;;;;;;8.57;5.53;;;15.10;99.90;;;;;;4993450;28;20044;-80
2023/07/27 09:16:39;;;;;;;8.05;5.65;;;15.10;99.90;;;;;;4989776;28;20031;-81
2023/07/27 09:19:06;;;;;;;7.28;5.80;;;15.20;99.90;;;;;;4967303;28;20065;-81
2023/07/27 09:21:44;;;;;;;7.28;5.97;;;15.20;99.90;;;;;;4993512;28;20045;-81
2023/07/27 09:24:11;;;;;;;8.55;6.55;;;15.20;99.90;;;;;;4993779;28;20474;-81
2023/07/27 09:26:53;;;;;;;6.88;5.60;;;15.30;99.90;;;;;;4981621;28;20131;-81
2023/07/27 09:29:22;;;;;;;7.32;6.03;;;15.40;99.90;;;;;;4993189;28;20069;-81
2023/07/27 09:31:52;;;;;;;7.32;5.88;;;15.40;99.90;;;;;;5008502;28;20071;-81
2023/07/27 09:34:20;;;;;;;7.15;5.18;;;15.40;99.90;;;;;;4976932;28;20041;-81
2023/07/27 09:36:46;;;;;;;6.95;6.25;;;15.50;99.90;;;;;;4991348;28;20057;-81
2023/07/27 09:39:14;;;;;;;8.45;6.00;;;15.60;99.90;;;;;;4993137;28;20414;-81
2023/07/27 09:41:43;;;;;;;7.53;6.10;;;15.60;99.90;;;;;;5009175;28;20038;-81
2023/07/27 09:44:16;;;;;;;6.05;5.25;;;15.60;99.90;;;;;;5009733;28;20077;-81
2023/07/27 09:46:45;;;;;;;9.27;5.60;;;15.60;99.90;;;;;;5000794;28;20050;-81
2023/07/27 09:49:12;;;;;;;6.40;5.40;;;15.60;99.90;;;;;;4992210;28;20266;-81
2023/07/27 09:51:39;;;;;;;5.32;4.82;;;15.70;99.90;;;;;;4992907;28;20081;-81
2023/07/27 09:54:05;;;;;;;9.07;5.25;;;15.80;99.90;;;;;;4992554;28;20037;-81
2023/07/27 09:56:34;;;;;;;5.22;4.68;;;15.80;99.90;;;;;;4993126;28;20038;-81
2023/07/27 09:59:00;;;;;;;5.50;4.50;;;15.90;99.90;;;;;;4992920;28;20088;-81
2023/07/27 10:01:27;;;;;;;5.47;4.68;;;15.90;99.90;;;;;;5008967;28;20133;-81
2023/07/27 10:03:57;;;;;;;8.18;5.13;;;15.70;99.90;;;;;;4996500;28;20049;-81
2023/07/27 10:06:25;;;;;;;6.30;4.78;;;16.10;99.90;;;;;;4991377;28;20088;-81
2023/07/27 10:08:52;;;;;;;6.47;4.55;;;16.10;99.90;;;;;;5007549;28;20077;-81
2023/07/27 10:11:17;;;;;;;5.20;4.65;;;16.10;99.90;;;;;;5009217;28;20406;-81
2023/07/27 10:13:44;;;;;;;6.18;4.65;;;16.20;99.90;;;;;;4998521;28;20048;-81
2023/07/27 10:16:17;;;;;;;4.80;4.30;;;16.20;99.90;;;;;;4976412;28;20038;-81
2023/07/27 10:18:45;;;;;;;5.43;4.35;;;16.20;99.90;;;;;;5008188;28;20038;-81
2023/07/27 10:21:28;;;;;;;4.90;4.40;;;16.30;99.90;;;;;;4993187;28;20053;-81
2023/07/27 10:24:01;;;;;;;6.00;5.38;;;16.30;99.90;;;;;;5005589;28;20046;-81
2023/07/27 10:26:49;;;;;;;7.13;5.00;;;16.30;99.90;;;;;;5006402;28;20060;-81
2023/07/27 10:29:27;;;;;;;6.93;5.82;;;16.40;99.90;;;;;;4990657;28;20040;-81
2023/07/27 10:32:07;;;;;;;6.97;5.60;;;16.40;99.90;;;;;;5008750;28;20594;-81
2023/07/27 10:34:34;;;;;;;6.55;5.85;;;16.40;99.90;;;;;;5008644;28;20034;-81
2023/07/27 10:37:02;;;;;;;7.05;6.35;;;16.50;99.90;;;;;;4975488;28;20460;-81
2023/07/27 10:39:29;;;;;;;6.97;5.72;;;16.50;99.90;;;;;;4993064;28;20399;-81
2023/07/27 10:41:59;;;;;;;6.47;5.68;;;16.50;99.90;;;;;;5009117;28;20623;-81
2023/07/27 10:44:41;;;;;;;10.50;6.70;;;16.60;99.90;;;;;;5009044;28;20495;-81
2023/07/27 10:47:09;;;;;;;8.13;6.47;;;16.60;99.90;;;;;;4992114;28;20117;-81
2023/07/27 10:49:43;;;;;;;7.32;6.55;;;16.60;99.90;;;;;;4992301;28;20045;-81
2023/07/27 10:52:09;;;;;;;7.93;6.75;;;16.70;99.90;;;;;;5000568;28;20072;-81
2023/07/27 10:54:39;;;;;;;7.57;6.78;;;16.70;99.90;;;;;;5009040;28;20390;-81
2023/07/27 10:57:12;;;;;;;6.97;6.28;;;16.80;99.90;;;;;;5008237;28;20034;-81
2023/07/27 10:59:47;;;;;;;;;;;16.80;99.90;;;;;;5012642;28;20041;-81
2023/07/27 11:02:21;;;;;;;7.15;6.10;;;16.90;99.90;;;;;;5012646;28;19979;-81
2023/07/27 11:04:56;;;;;;;7.45;5.80;;;16.90;99.90;;;;;;5011894;28;20050;-81
2023/07/27 11:07:33;;;;;;;6.00;5.30;;;16.90;99.90;;;;;;5011491;28;20124;-81
2023/07/27 11:10:03;;;;;;;6.40;5.47;;;16.90;99.90;;;;;;5012008;28;20513;-81
2023/07/27 11:12:29;;;;;;;7.28;5.25;;;16.90;99.90;;;;;;4994396;28;20052;-81
2023/07/27 11:15:12;;;;;;;5.40;4.90;;;16.90;99.90;;;;;;4992750;28;20073;-81
2023/07/27 11:17:39;;;;;;;5.28;4.78;;;16.90;99.90;;;;;;5004006;28;20038;-81
2023/07/27 11:20:05;;;;;;;4.95;4.45;;;16.90;99.90;;;;;;5011051;28;20129;-81
2023/07/27 11:22:31;;;;;;;4.45;4.05;;;16.90;99.90;;;;;;4979893;28;20042;-81
2023/07/27 11:24:57;;;;;;;4.43;4.03;;;16.90;99.90;;;;;;4995451;28;20048;-81
2023/07/27 11:27:24;;;;;;;5.18;4.60;;;17.00;99.90;;;;;;4995908;28;20048;-81
2023/07/27 11:29:51;;;;;;;9.02;4.63;;;17.00;99.90;;;;;;4979880;28;20036;-81
2023/07/27 11:32:24;;;;;;;5.32;4.55;;;17.00;99.90;;;;;;4995518;28;20068;-81
2023/07/27 11:34:57;;;;;;;5.07;4.50;;;17.10;99.90;;;;;;5010872;28;20487;-81
2023/07/27 11:37:29;;;;;;;7.53;5.18;;;17.10;99.90;;;;;;4958210;28;20042;-81
2023/07/27 11:39:55;;;;;;;4.95;4.45;;;17.10;99.90;;;;;;4956365;28;20110;-81
2023/07/27 11:42:29;;;;;;;4.30;3.83;;;17.20;99.90;;;;;;4956106;28;20038;-81
2023/07/27 11:44:56;;;;;;;4.38;3.85;;;17.30;99.90;;;;;;4942232;28;20089;-81
2023/07/27 11:47:23;;;;;;;4.93;4.15;;;17.30;99.90;;;;;;4974612;28;20040;-81
2023/07/27 11:49:50;;;;;;;4.32;3.92;;;17.30;99.90;;;;;;4990839;28;20070;-81
2023/07/27 11:52:17;;;;;;;3.95;3.50;;;17.40;99.90;;;;;;4974579;28;20089;-81
2023/07/27 11:54:44;;;;;;;4.18;3.60;;;17.60;99.90;;;;;;4974301;28;20043;-81
2023/07/27 11:57:15;;;;;;;4.55;3.95;;;17.50;99.90;;;;;;4959564;28;20467;-81
2023/07/27 11:59:40;;;;;;;4.50;3.95;;;17.60;99.90;;;;;;4991628;28;20041;-81
2023/07/27 12:02:06;;;;;;;5.25;4.15;;;17.60;99.90;;;;;;4975410;28;20039;-81
2023/07/27 12:04:32;;;;;;;4.10;3.72;;;17.70;99.90;;;;;;4942165;28;20042;-81
2023/07/27 12:06:58;;;;;;;3.78;3.38;;;17.70;99.90;;;;;;4943112;28;20287;-81
2023/07/27 12:09:23;;;;;;;3.50;3.17;;;17.70;99.90;;;;;;4958643;28;20038;-81
2023/07/27 12:11:49;;;;;;;3.75;3.40;;;17.80;99.90;;;;;;4958043;28;20042;-81
2023/07/27 12:14:22;;;;;;;4.15;3.75;;;17.80;99.90;;;;;;4958488;28;20093;-81
2023/07/27 12:16:48;;;;;;;4.45;3.55;;;17.80;99.90;;;;;;4975009;28;20077;-81
2023/07/27 12:19:14;;;;;;;3.50;3.20;;;17.90;99.90;;;;;;4974203;28;20446;-81
2023/07/27 12:21:40;;;;;;;7.55;3.63;;;17.90;99.90;;;;;;4954511;28;20069;-81
2023/07/27 12:24:10;;;;;;;4.10;3.17;;;17.90;99.90;;;;;;4951750;28;20034;-81
2023/07/27 12:26:39;;;;;;;3.38;2.97;;;17.90;99.90;;;;;;4956586;28;20042;-81
2023/07/27 12:29:04;;;;;;;3.60;3.13;;;17.90;99.90;;;;;;4939414;28;20067;-81
2023/07/27 12:31:33;;;;;;;4.35;3.80;;;18.00;99.90;;;;;;4938949;28;20078;-81
2023/07/27 12:33:59;;;;;;;5.18;3.50;;;18.00;99.90;;;;;;4941959;28;20065;-81
2023/07/27 12:36:25;;;;;;;3.90;3.50;;;18.00;99.90;;;;;;4973274;28;20126;-81
2023/07/27 12:38:52;;;;;;;4.35;3.70;;;18.00;99.90;;;;;;4957444;28;20034;-81
2023/07/27 12:41:18;;;;;;;5.38;3.28;;;17.90;99.90;;;;;;4957599;28;20472;-81
2023/07/27 12:43:44;;;;;;;4.75;4.25;;;18.00;99.90;;;;;;4958305;28;20089;-81